Time;durP1;ratioP1;P1;durP2;ratioP2;P2;SDS_P1;SDS_P2;PMS_P1;PMS_P2;Temp;Humidity;BMP_temperature;BMP_pressure;BME280_temperature;BME280_humidity;BME280_pressure;Samples;Min_cycle;Max_cycle;Signal;HPM_P1;HPM_P2
2023/08/20 00:01:44;;;;;;;24.42;19.65;;;22.40;99.90;;;;;;4895631;29;20476;-72
2023/08/20 00:04:11;;;;;;;25.10;19.23;;;22.40;99.90;;;;;;4899038;29;20036;-73
2023/08/20 00:09:48;;;;;;;22.60;18.90;;;22.30;99.90;;;;;;5053719;23;20116;-73
2023/08/20 00:12:14;;;;;;;24.40;20.08;;;22.40;99.90;;;;;;4937355;29;20032;-74
2023/08/20 00:15:12;;;;;;;23.02;18.48;;;22.40;99.90;;;;;;4953803;29;20434;-72
2023/08/20 00:17:40;;;;;;;30.00;19.08;;;22.40;99.90;;;;;;4888289;29;20112;-74
2023/08/20 00:20:13;;;;;;;25.50;19.02;;;22.40;99.90;;;;;;4897995;29;20048;-73
2023/08/20 00:22:42;;;;;;;22.90;18.42;;;22.40;99.90;;;;;;4897804;29;20068;-73
2023/08/20 00:25:08;;;;;;;23.65;20.48;;;22.40;99.90;;;;;;4897833;29;20103;-73
2023/08/20 00:27:34;;;;;;;24.95;20.20;;;22.50;99.90;;;;;;4897872;29;20045;-72
2023/08/20 00:30:00;;;;;;;24.10;19.50;;;22.50;99.90;;;;;;4897707;29;20599;-75
2023/08/20 00:32:26;;;;;;;25.90;20.20;;;22.50;99.90;;;;;;4898070;29;20079;-72
2023/08/20 00:34:52;;;;;;;24.50;19.40;;;22.50;99.90;;;;;;4896526;29;20488;-74
2023/08/20 00:37:18;;;;;;;25.75;19.42;;;22.40;99.90;;;;;;4881801;29;20081;-73
2023/08/20 00:39:44;;;;;;;27.23;19.70;;;22.40;99.90;;;;;;4896761;29;20046;-73
2023/08/20 00:42:10;;;;;;;24.08;19.52;;;22.40;99.90;;;;;;4881617;29;20048;-73
2023/08/20 00:44:36;;;;;;;23.40;18.45;;;22.30;99.90;;;;;;4897700;29;20056;-75
2023/08/20 00:47:04;;;;;;;24.35;20.17;;;22.40;99.90;;;;;;4881618;29;20139;-75
2023/08/20 00:49:31;;;;;;;25.38;20.25;;;22.40;99.90;;;;;;4881828;29;20203;-75
2023/08/20 00:51:58;;;;;;;25.33;19.25;;;22.50;99.90;;;;;;4885002;29;20020;-73
2023/08/20 00:54:25;;;;;;;25.27;19.75;;;22.50;99.90;;;;;;4943086;29;20123;-74
2023/08/20 00:56:52;;;;;;;23.83;18.90;;;22.50;99.90;;;;;;4955237;29;20030;-73
2023/08/20 00:59:18;;;;;;;23.40;19.02;;;22.50;99.90;;;;;;4947943;29;20126;-75
2023/08/20 01:01:44;;;;;;;23.83;19.30;;;22.50;99.90;;;;;;4954983;29;20082;-74
2023/08/20 01:04:10;;;;;;;23.55;19.08;;;22.50;99.90;;;;;;4956117;28;20028;-75
2023/08/20 01:06:55;;;;;;;25.45;18.52;;;22.50;99.90;;;;;;4950260;29;20483;-73
2023/08/20 01:09:40;;;;;;;24.42;19.20;;;22.50;99.90;;;;;;4955672;28;20455;-76
2023/08/20 01:12:06;;;;;;;24.05;18.48;;;22.50;99.90;;;;;;4957177;28;20561;-74
2023/08/20 01:14:32;;;;;;;23.48;18.90;;;22.50;99.90;;;;;;4957943;28;20246;-73
2023/08/20 01:16:59;;;;;;;22.85;18.40;;;22.40;99.90;;;;;;4957878;28;20486;-75
2023/08/20 01:19:25;;;;;;;25.33;20.17;;;22.40;99.90;;;;;;4958479;28;20034;-72
2023/08/20 01:22:09;;;;;;;24.23;19.00;;;22.40;99.90;;;;;;4975130;28;20034;-75
2023/08/20 01:24:38;;;;;;;21.73;19.10;;;22.40;99.90;;;;;;4974215;28;20050;-73
2023/08/20 01:27:13;;;;;;;24.48;19.45;;;22.40;99.90;;;;;;4957871;28;20074;-73
2023/08/20 01:29:39;;;;;;;23.85;18.95;;;22.40;99.90;;;;;;4957675;28;20490;-75
2023/08/20 01:32:07;;;;;;;24.70;18.77;;;22.40;99.90;;;;;;4957732;28;20038;-73
2023/08/20 01:34:33;;;;;;;26.20;20.85;;;22.40;99.90;;;;;;4957495;28;20387;-74
2023/08/20 01:36:59;;;;;;;21.83;18.27;;;22.40;99.90;;;;;;4957716;28;20023;-74
2023/08/20 01:39:25;;;;;;;24.15;19.85;;;22.40;99.90;;;;;;4957444;28;20042;-73
2023/08/20 01:41:51;;;;;;;29.33;18.40;;;22.50;99.90;;;;;;4974659;28;20022;-73
2023/08/20 01:44:17;;;;;;;23.63;19.00;;;22.50;99.90;;;;;;4957282;28;20526;-74
2023/08/20 01:46:42;;;;;;;25.15;19.80;;;22.50;99.90;;;;;;4974507;28;20033;-74
2023/08/20 01:49:08;;;;;;;22.65;19.33;;;22.40;99.90;;;;;;4974762;28;20606;-73
2023/08/20 01:51:36;;;;;;;26.38;18.50;;;22.50;99.90;;;;;;4974423;28;20146;-72
2023/08/20 01:54:02;;;;;;;26.63;19.00;;;22.40;99.90;;;;;;4957352;28;20118;-75
2023/08/20 01:56:28;;;;;;;23.52;19.15;;;22.50;99.90;;;;;;4956992;28;20030;-72
2023/08/20 01:58:54;;;;;;;30.05;17.23;;;22.50;99.90;;;;;;4957372;28;20035;-74
2023/08/20 02:01:20;;;;;;;25.30;19.02;;;22.50;99.90;;;;;;4956972;28;20031;-75
2023/08/20 02:03:46;;;;;;;23.63;18.42;;;22.50;99.90;;;;;;4957174;28;20030;-73
2023/08/20 02:06:11;;;;;;;21.83;17.65;;;22.50;99.90;;;;;;4956925;28;20379;-75
2023/08/20 02:08:37;;;;;;;23.85;18.25;;;22.50;99.90;;;;;;4974225;28;20482;-74
2023/08/20 02:11:04;;;;;;;22.75;17.38;;;22.50;99.90;;;;;;4956530;28;20054;-73
2023/08/20 02:13:31;;;;;;;23.98;18.10;;;22.40;99.90;;;;;;4974239;28;20035;-76
2023/08/20 02:16:02;;;;;;;21.52;17.67;;;22.40;99.90;;;;;;4957084;28;20022;-75
2023/08/20 02:18:28;;;;;;;21.20;17.13;;;22.40;99.90;;;;;;4956871;28;20053;-75
2023/08/20 02:20:54;;;;;;;23.50;17.92;;;22.40;99.90;;;;;;4974482;28;20019;-76
2023/08/20 02:23:20;;;;;;;23.75;17.48;;;22.30;99.90;;;;;;4973996;28;20031;-75
2023/08/20 02:25:46;;;;;;;23.35;18.13;;;22.30;99.90;;;;;;4956764;28;20074;-75
2023/08/20 02:28:12;;;;;;;22.70;19.52;;;22.30;99.90;;;;;;4973880;28;20045;-73
2023/08/20 02:30:45;;;;;;;24.92;17.80;;;22.30;99.90;;;;;;4974064;28;20114;-72
2023/08/20 02:33:12;;;;;;;22.08;17.65;;;22.30;99.90;;;;;;4974157;28;20126;-73
2023/08/20 02:35:39;;;;;;;27.95;18.42;;;22.30;99.90;;;;;;4973448;28;20445;-73
2023/08/20 02:38:06;;;;;;;24.25;17.58;;;22.30;99.90;;;;;;4956607;28;20113;-76
2023/08/20 02:40:38;;;;;;;22.00;17.45;;;22.20;99.90;;;;;;4973487;28;20030;-76
2023/08/20 02:43:05;;;;;;;26.20;18.58;;;22.20;99.90;;;;;;4956804;28;20027;-73
2023/08/20 02:45:32;;;;;;;26.38;20.15;;;22.20;99.90;;;;;;4973560;28;20416;-75
2023/08/20 02:47:59;;;;;;;23.75;19.05;;;22.10;99.90;;;;;;4956483;28;20043;-75
2023/08/20 02:50:25;;;;;;;23.33;18.25;;;22.10;99.90;;;;;;4973635;28;20069;-75
2023/08/20 02:52:51;;;;;;;23.95;19.20;;;22.10;99.90;;;;;;4973605;28;20031;-75
2023/08/20 02:55:17;;;;;;;24.98;20.33;;;22.10;99.90;;;;;;4973469;28;20089;-74
2023/08/20 02:57:43;;;;;;;24.33;17.92;;;22.10;99.90;;;;;;4973202;28;20113;-75
2023/08/20 03:00:13;;;;;;;23.92;19.23;;;22.10;99.90;;;;;;4956186;28;20030;-75
2023/08/20 03:02:41;;;;;;;24.50;18.90;;;22.00;99.90;;;;;;4956041;28;20501;-73
2023/08/20 03:05:10;;;;;;;25.10;18.73;;;22.00;99.90;;;;;;4956009;28;20173;-75
2023/08/20 03:07:36;;;;;;;24.65;18.08;;;22.00;99.90;;;;;;4973140;28;20023;-74
2023/08/20 03:10:02;;;;;;;23.60;19.33;;;22.00;99.90;;;;;;4955562;28;20053;-73
2023/08/20 03:12:29;;;;;;;24.77;19.52;;;22.00;99.90;;;;;;4956199;28;20118;-74
2023/08/20 03:14:55;;;;;;;23.17;18.88;;;22.00;99.90;;;;;;4973214;28;20033;-72
2023/08/20 03:17:21;;;;;;;23.05;18.38;;;22.00;99.90;;;;;;4973093;28;20513;-74
2023/08/20 03:19:59;;;;;;;23.50;18.50;;;22.00;99.90;;;;;;4973126;28;20027;-72
2023/08/20 03:22:26;;;;;;;23.88;18.65;;;22.00;99.90;;;;;;4955931;28;20046;-74
2023/08/20 03:24:52;;;;;;;22.40;18.08;;;22.00;99.90;;;;;;4973013;28;20422;-75
2023/08/20 03:27:19;;;;;;;21.90;17.55;;;22.00;99.90;;;;;;4973129;28;20033;-75
2023/08/20 03:29:45;;;;;;;23.75;18.23;;;22.00;99.90;;;;;;4955710;28;20031;-75
2023/08/20 03:32:11;;;;;;;22.80;18.00;;;21.90;99.90;;;;;;4955485;28;20081;-74
2023/08/20 03:34:37;;;;;;;22.52;18.88;;;21.90;99.90;;;;;;4973477;28;20023;-75
2023/08/20 03:37:03;;;;;;;24.27;18.77;;;21.80;99.90;;;;;;4972899;28;20034;-73
2023/08/20 03:39:30;;;;;;;25.58;18.63;;;21.80;99.90;;;;;;4955700;28;20495;-75
2023/08/20 03:41:57;;;;;;;24.60;18.55;;;21.80;99.90;;;;;;4955624;28;20096;-75
2023/08/20 03:44:23;;;;;;;26.83;20.65;;;21.80;99.90;;;;;;4955325;28;20533;-73
2023/08/20 03:46:49;;;;;;;23.98;19.08;;;21.80;99.90;;;;;;4974515;28;20026;-74
2023/08/20 03:49:16;;;;;;;26.80;19.88;;;21.80;99.90;;;;;;4989940;28;20041;-72
2023/08/20 03:51:42;;;;;;;25.17;18.33;;;21.80;99.90;;;;;;4959316;28;20027;-75
2023/08/20 03:54:09;;;;;;;26.20;18.77;;;21.80;99.90;;;;;;4976622;28;20031;-73
2023/08/20 03:56:35;;;;;;;23.80;18.23;;;21.80;99.90;;;;;;4959517;28;20018;-74
2023/08/20 03:59:02;;;;;;;23.85;19.23;;;21.80;99.90;;;;;;4959313;28;20485;-75
2023/08/20 04:01:29;;;;;;;23.30;18.23;;;21.90;99.90;;;;;;4959632;28;20029;-76
2023/08/20 04:03:55;;;;;;;24.52;18.92;;;22.00;99.90;;;;;;4976449;28;20026;-74
2023/08/20 04:06:20;;;;;;;23.98;19.52;;;22.00;99.90;;;;;;4976958;28;20031;-74
2023/08/20 04:08:46;;;;;;;25.80;18.67;;;22.00;99.90;;;;;;4976027;28;20454;-74
2023/08/20 04:11:12;;;;;;;24.77;17.52;;;22.10;99.90;;;;;;4976240;28;20131;-73
2023/08/20 04:13:39;;;;;;;22.85;17.27;;;22.30;99.90;;;;;;4976444;28;20122;-73
2023/08/20 04:16:06;;;;;;;22.38;16.88;;;22.30;99.90;;;;;;4959281;28;20031;-74
2023/08/20 04:18:32;;;;;;;22.30;17.42;;;22.40;99.90;;;;;;4958908;28;20039;-73
2023/08/20 04:20:58;;;;;;;22.90;17.08;;;22.60;99.90;;;;;;4976649;28;20026;-73
2023/08/20 04:23:24;;;;;;;20.75;15.77;;;22.80;99.90;;;;;;4976488;28;20117;-75
2023/08/20 04:25:50;;;;;;;18.98;15.07;;;22.90;99.90;;;;;;4976281;28;20026;-76
2023/08/20 04:28:16;;;;;;;25.15;17.00;;;23.00;99.90;;;;;;4976449;28;20031;-73
2023/08/20 04:30:43;;;;;;;19.38;16.00;;;23.40;99.90;;;;;;4989068;28;20168;-73
2023/08/20 04:33:10;;;;;;;20.33;15.05;;;23.30;99.90;;;;;;4969926;28;20030;-72
2023/08/20 04:35:38;;;;;;;20.65;15.50;;;23.30;99.90;;;;;;4965044;28;20121;-71
2023/08/20 04:38:04;;;;;;;19.98;14.88;;;23.20;99.90;;;;;;4989251;28;20101;-74
2023/08/20 04:40:29;;;;;;;20.27;14.77;;;23.30;99.90;;;;;;4965514;28;20125;-73
2023/08/20 04:42:55;;;;;;;22.08;15.10;;;23.50;99.90;;;;;;4980224;28;20030;-72
2023/08/20 04:45:21;;;;;;;18.02;14.43;;;23.70;99.90;;;;;;4966937;28;20034;-72
2023/08/20 04:47:47;;;;;;;20.02;14.25;;;23.80;99.90;;;;;;4958312;28;20077;-72
2023/08/20 04:50:16;;;;;;;20.00;13.68;;;24.00;99.90;;;;;;4970492;28;20061;-75
2023/08/20 04:52:42;;;;;;;24.25;14.23;;;24.40;99.90;;;;;;4982208;28;20105;-72
2023/08/20 04:55:09;;;;;;;19.13;14.48;;;24.20;99.90;;;;;;4965432;28;20042;-72
2023/08/20 04:57:35;;;;;;;19.05;13.13;;;24.70;99.90;;;;;;4957929;28;20027;-74
2023/08/20 05:00:02;;;;;;;19.33;13.82;;;25.20;99.90;;;;;;4971329;28;20038;-75
2023/08/20 05:02:39;;;;;;;19.90;13.52;;;25.30;99.90;;;;;;4958232;28;20030;-75
2023/08/20 05:05:06;;;;;;;20.90;14.27;;;25.20;99.90;;;;;;4957953;28;20039;-74
2023/08/20 05:07:32;;;;;;;18.80;13.68;;;25.70;99.90;;;;;;4958315;28;20042;-73
2023/08/20 05:09:58;;;;;;;19.55;12.90;;;26.00;99.90;;;;;;4956903;28;20055;-73
2023/08/20 05:12:24;;;;;;;18.63;14.45;;;25.70;99.90;;;;;;4959491;28;20039;-72
2023/08/20 05:14:50;;;;;;;18.35;13.82;;;25.20;99.90;;;;;;4973258;28;20034;-74
2023/08/20 05:17:16;;;;;;;18.50;12.85;;;24.90;99.90;;;;;;4942572;28;20027;-72
2023/08/20 05:19:43;;;;;;;18.30;12.77;;;24.70;99.90;;;;;;4974921;28;20489;-72
2023/08/20 05:22:10;;;;;;;20.60;13.38;;;24.60;99.90;;;;;;4958075;28;20031;-72
2023/08/20 05:24:36;;;;;;;18.20;13.07;;;24.70;99.90;;;;;;4957667;28;20031;-73
2023/08/20 05:27:17;;;;;;;20.75;13.45;;;24.70;99.90;;;;;;4957932;28;20033;-73
2023/08/20 05:29:46;;;;;;;17.10;12.70;;;24.70;99.90;;;;;;4957911;28;20073;-76
2023/08/20 05:32:12;;;;;;;18.52;13.15;;;24.90;99.90;;;;;;4956900;28;20121;-73
2023/08/20 05:34:38;;;;;;;15.60;12.35;;;24.80;99.90;;;;;;4957915;28;20030;-73
2023/08/20 05:37:04;;;;;;;18.85;13.68;;;25.00;99.90;;;;;;4957507;28;20027;-71
2023/08/20 05:39:37;;;;;;;20.95;13.75;;;25.10;99.90;;;;;;4957000;28;20061;-71
2023/08/20 05:42:04;;;;;;;17.13;12.15;;;25.20;99.90;;;;;;4957597;28;20122;-72
2023/08/20 05:44:30;;;;;;;18.05;12.35;;;25.20;99.90;;;;;;4941279;28;20037;-75
2023/08/20 05:46:56;;;;;;;19.73;12.90;;;25.50;99.90;;;;;;4938365;28;20042;-72
2023/08/20 05:49:25;;;;;;;16.08;12.25;;;25.50;99.90;;;;;;4937889;28;20031;-73
2023/08/20 05:51:51;;;;;;;18.90;13.77;;;25.20;99.90;;;;;;4922541;29;20031;-73
2023/08/20 05:54:17;;;;;;;17.40;12.20;;;25.10;99.90;;;;;;4941895;28;20033;-72
2023/08/20 05:56:43;;;;;;;21.70;13.48;;;25.20;99.90;;;;;;4938035;28;20059;-74
2023/08/20 05:59:09;;;;;;;16.75;12.20;;;25.40;99.90;;;;;;4955189;28;20061;-72
2023/08/20 06:01:35;;;;;;;18.40;13.55;;;25.40;99.90;;;;;;4938184;28;20027;-74
2023/08/20 06:04:01;;;;;;;17.92;13.15;;;25.50;99.90;;;;;;4955138;28;20034;-73
2023/08/20 06:06:27;;;;;;;18.52;12.30;;;25.70;99.90;;;;;;4937770;28;20031;-73
2023/08/20 06:08:53;;;;;;;16.50;11.70;;;25.70;99.90;;;;;;4954143;28;20155;-72
2023/08/20 06:11:20;;;;;;;17.63;12.05;;;25.80;99.90;;;;;;4954577;28;20051;-72
2023/08/20 06:13:46;;;;;;;16.60;12.60;;;25.80;99.90;;;;;;4955261;28;20510;-72
2023/08/20 06:16:12;;;;;;;18.67;13.85;;;26.00;99.90;;;;;;4954699;28;20031;-72
2023/08/20 06:18:38;;;;;;;18.90;12.88;;;26.20;99.90;;;;;;4957161;28;20471;-73
2023/08/20 06:21:04;;;;;;;16.60;12.35;;;26.40;99.90;;;;;;4954757;28;20035;-72
2023/08/20 06:23:29;;;;;;;17.33;12.60;;;26.40;99.90;;;;;;4954838;28;20031;-72
2023/08/20 06:25:55;;;;;;;19.50;13.00;;;26.50;99.90;;;;;;4954645;28;20011;-73
2023/08/20 06:28:21;;;;;;;19.05;14.57;;;26.70;99.90;;;;;;4954824;28;20034;-73
2023/08/20 06:30:47;;;;;;;17.02;12.68;;;26.70;99.90;;;;;;4959761;28;20590;-72
2023/08/20 06:33:13;;;;;;;18.17;13.20;;;26.50;99.90;;;;;;4960671;28;20179;-72
2023/08/20 06:35:39;;;;;;;18.05;12.43;;;26.80;99.90;;;;;;4961451;28;20027;-72
2023/08/20 06:38:05;;;;;;;16.33;12.25;;;26.90;99.90;;;;;;4954491;28;20027;-75
2023/08/20 06:40:31;;;;;;;18.23;12.57;;;27.00;99.90;;;;;;4954249;28;20036;-75
2023/08/20 06:42:57;;;;;;;18.50;11.60;;;26.80;99.90;;;;;;4954148;28;20497;-75
2023/08/20 06:45:23;;;;;;;16.58;12.13;;;;;;;;;;4954713;28;20023;-72
2023/08/20 06:47:49;;;;;;;15.70;11.77;;;27.20;99.90;;;;;;4954094;28;20034;-73
2023/08/20 06:50:14;;;;;;;17.05;12.18;;;27.50;99.90;;;;;;4954371;28;20472;-72
2023/08/20 06:52:40;;;;;;;17.60;11.23;;;27.40;99.90;;;;;;4954086;28;20027;-73
2023/08/20 06:55:07;;;;;;;16.85;10.77;;;;;;;;;;4956954;28;20058;-73
2023/08/20 06:57:32;;;;;;;17.00;12.00;;;27.60;99.90;;;;;;4953988;28;20040;-72
2023/08/20 06:59:58;;;;;;;17.08;11.20;;;27.60;99.90;;;;;;4954059;28;20526;-72
2023/08/20 07:02:24;;;;;;;18.27;11.70;;;27.70;99.90;;;;;;4968020;28;20034;-73
2023/08/20 07:04:50;;;;;;;16.70;11.30;;;27.90;99.90;;;;;;4973280;28;20026;-75
2023/08/20 07:07:16;;;;;;;16.13;12.43;;;28.10;99.90;;;;;;4973277;28;20038;-73
2023/08/20 07:09:41;;;;;;;15.73;11.70;;;28.30;99.90;;;;;;4975472;28;20137;-75
2023/08/20 07:12:07;;;;;;;14.75;11.02;;;28.10;99.90;;;;;;4983497;28;20019;-75
2023/08/20 07:14:33;;;;;;;18.50;10.85;;;28.30;99.90;;;;;;4956156;28;20102;-75
2023/08/20 07:17:00;;;;;;;15.43;10.52;;;28.60;99.90;;;;;;4973525;28;20423;-73
2023/08/20 07:19:26;;;;;;;17.35;12.18;;;28.60;99.90;;;;;;4973089;28;20018;-73
2023/08/20 07:21:52;;;;;;;15.93;11.10;;;28.60;99.90;;;;;;4976555;28;20474;-74
2023/08/20 07:24:18;;;;;;;15.00;10.82;;;28.70;99.90;;;;;;4982154;28;20042;-75
2023/08/20 07:26:44;;;;;;;16.92;12.05;;;28.60;99.90;;;;;;4955815;28;20062;-75
2023/08/20 07:29:10;;;;;;;15.05;11.30;;;28.60;99.90;;;;;;4959796;28;20059;-73
2023/08/20 07:31:36;;;;;;;17.30;11.43;;;28.60;99.90;;;;;;4973239;28;20065;-74
2023/08/20 07:34:03;;;;;;;16.17;11.02;;;28.80;99.90;;;;;;4972963;28;20122;-73
2023/08/20 07:36:28;;;;;;;17.73;11.73;;;29.00;99.90;;;;;;4972948;28;20027;-75
2023/08/20 07:38:54;;;;;;;17.60;11.68;;;29.20;99.90;;;;;;4972919;28;20528;-74
2023/08/20 07:41:21;;;;;;;16.17;11.93;;;29.30;99.90;;;;;;4966093;28;20482;-74
2023/08/20 07:43:48;;;;;;;15.88;10.57;;;29.20;99.90;;;;;;4953830;28;20038;-74
2023/08/20 07:46:15;;;;;;;17.60;11.30;;;29.30;99.90;;;;;;4936526;28;20035;-73
2023/08/20 07:48:41;;;;;;;14.80;11.15;;;29.70;99.90;;;;;;4960925;28;20039;-74
2023/08/20 07:51:07;;;;;;;15.73;11.13;;;29.80;99.90;;;;;;4953659;28;20023;-74
2023/08/20 07:53:33;;;;;;;15.75;10.82;;;29.80;99.90;;;;;;4953363;28;20035;-73
2023/08/20 07:56:00;;;;;;;16.50;11.65;;;29.80;99.90;;;;;;4955345;28;20532;-74
2023/08/20 07:58:26;;;;;;;14.80;10.82;;;30.00;99.90;;;;;;4955359;28;20398;-73
2023/08/20 08:00:52;;;;;;;14.85;10.80;;;30.10;99.90;;;;;;4972894;28;20421;-74
2023/08/20 08:03:18;;;;;;;16.70;11.40;;;30.20;99.90;;;;;;4972839;28;20034;-73
2023/08/20 08:05:48;;;;;;;17.08;11.10;;;30.30;99.90;;;;;;4972638;28;20032;-75
2023/08/20 08:08:18;;;;;;;15.35;10.85;;;30.40;99.90;;;;;;4961343;28;20054;-75
2023/08/20 08:10:45;;;;;;;17.77;10.75;;;30.40;99.90;;;;;;4952935;28;20047;-73
2023/08/20 08:13:12;;;;;;;16.75;10.30;;;30.70;98.70;;;;;;4953210;28;20031;-74
2023/08/20 08:15:38;;;;;;;16.33;9.40;;;;;;;;;;4953422;28;20035;-73
2023/08/20 08:18:04;;;;;;;17.83;11.98;;;;;;;;;;4960412;28;20471;-74
2023/08/20 08:20:32;;;;;;;15.93;10.23;;;30.90;99.90;;;;;;4941890;28;20053;-74
2023/08/20 08:22:58;;;;;;;18.00;10.75;;;31.20;99.90;;;;;;4959622;28;20478;-74
2023/08/20 08:25:24;;;;;;;14.40;10.65;;;30.90;99.90;;;;;;4972599;28;20114;-76
2023/08/20 08:27:49;;;;;;;12.98;10.10;;;30.90;99.90;;;;;;4955128;28;20467;-77
2023/08/20 08:30:15;;;;;;;14.50;9.57;;;31.00;99.90;;;;;;4972362;28;20050;-73
2023/08/20 08:32:41;;;;;;;12.30;8.90;;;31.10;99.50;;;;;;4973974;28;20019;-73
2023/08/20 08:35:07;;;;;;;12.45;9.90;;;31.10;97.80;;;;;;4989027;28;20520;-73
2023/08/20 08:37:33;;;;;;;17.17;9.95;;;31.00;96.60;;;;;;4988246;28;20100;-76
2023/08/20 08:39:59;;;;;;;16.20;9.88;;;31.00;98.70;;;;;;4967261;28;20023;-72
2023/08/20 08:42:26;;;;;;;14.18;9.98;;;;;;;;;;4956259;28;20082;-74
2023/08/20 08:44:52;;;;;;;17.42;10.95;;;31.20;94.80;;;;;;4956598;28;20023;-75
2023/08/20 08:47:19;;;;;;;17.63;10.13;;;31.10;94.10;;;;;;4956551;28;20114;-75
2023/08/20 08:49:47;;;;;;;15.18;10.05;;;30.90;93.40;;;;;;4960122;28;20046;-75
2023/08/20 08:52:14;;;;;;;14.43;9.65;;;30.90;95.20;;;;;;4975477;28;20061;-73
2023/08/20 08:54:39;;;;;;;12.50;9.95;;;30.90;94.50;;;;;;4975933;28;20031;-75
2023/08/20 08:57:05;;;;;;;18.17;10.45;;;31.10;93.40;;;;;;4975585;28;20201;-76
2023/08/20 08:59:32;;;;;;;17.05;11.10;;;31.10;93.90;;;;;;4975873;28;20096;-76
2023/08/20 09:01:58;;;;;;;14.30;9.70;;;;;;;;;;4975472;28;20038;-74
2023/08/20 09:04:24;;;;;;;16.63;10.60;;;;;;;;;;4975646;28;20038;-75
2023/08/20 09:06:56;;;;;;;13.80;9.45;;;;;;;;;;4975672;28;20094;-74
2023/08/20 09:09:22;;;;;;;13.82;9.30;;;;;;;;;;4975068;28;20074;-75
2023/08/20 09:11:48;;;;;;;14.55;10.25;;;31.70;95.40;;;;;;4975577;28;20121;-75
2023/08/20 09:14:24;;;;;;;16.55;10.85;;;;;;;;;;4975229;28;20042;-74
2023/08/20 09:17:00;;;;;;;17.73;10.60;;;31.80;95.00;;;;;;4975491;28;20110;-74
2023/08/20 09:19:39;;;;;;;16.23;11.40;;;31.50;94.80;;;;;;4975362;28;20127;-73
2023/08/20 09:22:05;;;;;;;14.75;11.15;;;31.40;95.50;;;;;;4975085;28;20389;-74
2023/08/20 09:24:51;;;;;;;15.75;11.38;;;31.50;95.80;;;;;;4975403;28;20033;-75
2023/08/20 09:27:17;;;;;;;18.40;11.77;;;31.40;99.90;;;;;;4975116;28;20078;-75
2023/08/20 09:29:48;;;;;;;19.92;11.07;;;31.50;99.90;;;;;;4975177;28;20047;-74
2023/08/20 09:32:21;;;;;;;14.77;12.10;;;;;;;;;;4975144;28;20034;-75
2023/08/20 09:34:51;;;;;;;16.67;13.65;;;30.90;99.90;;;;;;4974904;28;20741;-74
2023/08/20 09:37:20;;;;;;;21.77;14.18;;;31.10;99.90;;;;;;4975063;28;20035;-76
2023/08/20 09:39:46;;;;;;;18.17;13.57;;;31.20;99.90;;;;;;4974992;28;20051;-74
2023/08/20 09:42:12;;;;;;;20.63;12.82;;;31.20;99.30;;;;;;4974738;28;20030;-74
2023/08/20 09:44:40;;;;;;;17.80;13.10;;;31.30;98.70;;;;;;4974089;28;20047;-74
2023/08/20 09:47:08;;;;;;;19.65;13.70;;;31.30;98.40;;;;;;4962001;28;20035;-74
2023/08/20 09:49:44;;;;;;;18.67;13.43;;;31.30;99.60;;;;;;4974747;28;20030;-73
2023/08/20 09:52:27;;;;;;;22.73;13.50;;;31.00;98.30;;;;;;4974797;28;20058;-74
2023/08/20 09:55:20;;;;;;;19.92;13.68;;;31.30;98.20;;;;;;4974430;28;20027;-75
2023/08/20 09:57:47;;;;;;;13.85;9.57;;;31.30;97.20;;;;;;4974500;28;20030;-75
2023/08/20 10:00:14;;;;;;;16.67;11.23;;;31.20;96.00;;;;;;4974656;28;20030;-75
2023/08/20 10:02:40;;;;;;;15.85;10.43;;;31.30;98.30;;;;;;4974639;28;20042;-75
2023/08/20 10:05:11;;;;;;;15.75;10.50;;;31.50;96.10;;;;;;4974622;28;20014;-74
2023/08/20 10:07:38;;;;;;;13.48;9.57;;;;;;;;;;4974344;28;20031;-75
2023/08/20 10:10:14;;;;;;;13.38;9.25;;;;;;;;;;4974161;28;20069;-74
2023/08/20 10:12:41;;;;;;;13.38;8.82;;;31.60;99.90;;;;;;4974010;28;20027;-73
2023/08/20 10:15:11;;;;;;;15.82;8.57;;;;;;;;;;4974566;28;20026;-75
2023/08/20 10:17:38;;;;;;;14.57;9.05;;;;;;;;;;4974091;28;20097;-75
2023/08/20 10:20:06;;;;;;;15.55;8.75;;;;;;;;;;4974183;28;20038;-73
2023/08/20 10:22:42;;;;;;;14.57;9.15;;;;;;;;;;4974240;28;20479;-75
2023/08/20 10:25:09;;;;;;;13.77;8.05;;;;;;;;;;4973841;28;20030;-74
2023/08/20 10:27:37;;;;;;;12.93;8.55;;;;;;;;;;4973697;28;20019;-73
2023/08/20 10:30:21;;;;;;;14.88;8.68;;;;;;;;;;4973818;28;20459;-74
2023/08/20 10:32:49;;;;;;;13.95;8.73;;;;;;;;;;4973921;28;20121;-75
2023/08/20 10:35:19;;;;;;;15.73;8.80;;;;;;;;;;4973951;28;20030;-72
2023/08/20 10:38:03;;;;;;;13.50;8.88;;;;;;;;;;4973628;28;20027;-72
2023/08/20 10:40:49;;;;;;;12.73;9.02;;;;;;;;;;4973373;28;20078;-74
2023/08/20 10:43:25;;;;;;;10.63;8.15;;;;;;;;;;4973693;28;20043;-72
2023/08/20 10:46:07;;;;;;;12.85;8.88;;;;;;;;;;4973561;28;20110;-75
2023/08/20 10:48:35;;;;;;;13.90;10.10;;;;;;;;;;4973472;28;20027;-73
2023/08/20 10:51:12;;;;;;;14.18;9.00;;;;;;;;;;4956537;28;20027;-75
2023/08/20 10:53:38;;;;;;;13.40;9.15;;;;;;;;;;4961389;28;20030;-72
2023/08/20 10:56:15;;;;;;;12.95;7.90;;;;;;;;;;4973150;28;20118;-73
2023/08/20 10:58:42;;;;;;;12.25;9.07;;;;;;;;;;4973515;28;20062;-74
2023/08/20 11:01:15;;;;;;;11.73;8.55;;;;;;;;;;4973523;28;20049;-73
2023/08/20 11:03:42;;;;;;;12.73;8.63;;;;;;;;;;4973503;28;20545;-73
2023/08/20 11:06:08;;;;;;;10.98;8.25;;;;;;;;;;4973263;28;20069;-75
2023/08/20 11:08:35;;;;;;;13.15;8.50;;;;;;;;;;4973533;28;20046;-75
2023/08/20 11:11:03;;;;;;;13.18;8.48;;;;;;;;;;4972695;28;20478;-75
2023/08/20 11:13:31;;;;;;;12.95;8.60;;;32.70;84.30;;;;;;4973379;28;20482;-74
2023/08/20 11:15:57;;;;;;;18.45;9.07;;;32.70;89.80;;;;;;4973130;28;20031;-74
2023/08/20 11:18:25;;;;;;;14.32;9.60;;;32.70;90.40;;;;;;4973145;28;20475;-73
2023/08/20 11:20:51;;;;;;;13.15;8.77;;;32.70;90.70;;;;;;4973248;28;20501;-73
2023/08/20 11:23:17;;;;;;;13.50;9.13;;;32.70;90.70;;;;;;4973078;28;20039;-74
2023/08/20 11:25:43;;;;;;;10.30;7.07;;;32.40;90.30;;;;;;4973290;28;20019;-74
2023/08/20 11:28:10;;;;;;;11.02;7.32;;;;;;;;;;4972837;28;20038;-75
2023/08/20 11:30:36;;;;;;;17.05;7.57;;;;;;;;;;4973107;28;20041;-75
2023/08/20 11:33:02;;;;;;;12.75;7.60;;;;;;;;;;4972943;28;20019;-75
2023/08/20 11:35:28;;;;;;;12.30;7.25;;;32.90;89.10;;;;;;4973127;28;20030;-74
2023/08/20 11:37:54;;;;;;;12.38;7.50;;;33.00;80.20;;;;;;4973067;28;20030;-74
2023/08/20 11:40:21;;;;;;;13.18;7.55;;;33.10;79.90;;;;;;4972687;28;20031;-76
2023/08/20 11:42:48;;;;;;;10.07;6.75;;;33.00;79.70;;;;;;4972742;28;20074;-74
2023/08/20 11:45:14;;;;;;;22.85;7.22;;;33.00;79.20;;;;;;4972773;28;20023;-73
2023/08/20 11:47:40;;;;;;;13.27;6.82;;;33.20;78.50;;;;;;4973075;28;20027;-74
2023/08/20 11:50:07;;;;;;;13.32;7.40;;;33.10;78.50;;;;;;4972515;28;20478;-74
2023/08/20 11:52:33;;;;;;;10.85;6.43;;;33.20;78.60;;;;;;4972933;28;20023;-75
2023/08/20 11:55:00;;;;;;;10.10;6.50;;;33.10;77.90;;;;;;4972629;28;20109;-74
2023/08/20 11:57:28;;;;;;;12.15;7.13;;;33.10;78.00;;;;;;4972779;28;20027;-73
2023/08/20 11:59:54;;;;;;;10.55;6.70;;;33.20;78.50;;;;;;4972679;28;20058;-75
2023/08/20 12:02:29;;;;;;;9.25;6.15;;;33.30;78.50;;;;;;4972957;28;20061;-73
2023/08/20 12:04:59;;;;;;;11.02;6.80;;;33.30;75.90;;;;;;4972852;28;20082;-73
2023/08/20 12:07:28;;;;;;;10.13;6.82;;;33.30;77.60;;;;;;4973578;28;20031;-74
2023/08/20 12:09:55;;;;;;;10.43;7.07;;;33.20;76.40;;;;;;4958391;28;20445;-73
2023/08/20 12:12:22;;;;;;;8.07;6.22;;;33.20;77.60;;;;;;4976303;28;20051;-74
2023/08/20 12:14:48;;;;;;;9.43;6.82;;;;;;;;;;4976397;28;20109;-73
2023/08/20 12:17:18;;;;;;;9.35;6.45;;;;;;;;;;4959027;28;20134;-74
2023/08/20 12:19:45;;;;;;;10.40;6.57;;;33.60;78.80;;;;;;4976480;28;20031;-75
2023/08/20 12:22:13;;;;;;;13.55;7.80;;;;;;;;;;4976136;28;20482;-75
2023/08/20 12:24:40;;;;;;;14.30;6.85;;;;;;;;;;4976269;28;20049;-76
2023/08/20 12:27:06;;;;;;;11.05;7.13;;;;;;;;;;4976356;28;20037;-74
2023/08/20 12:29:32;;;;;;;10.05;5.63;;;;;;;;;;4976155;28;20043;-74
2023/08/20 12:31:58;;;;;;;9.52;6.22;;;34.00;76.60;;;;;;4976146;28;20107;-74
2023/08/20 12:34:25;;;;;;;8.73;6.30;;;34.10;76.70;;;;;;4976030;28;20035;-77
2023/08/20 12:36:51;;;;;;;11.27;6.10;;;34.10;76.80;;;;;;4976061;28;20030;-73
2023/08/20 12:39:18;;;;;;;8.00;5.90;;;34.10;77.90;;;;;;4975953;28;20031;-74
2023/08/20 12:41:44;;;;;;;9.10;5.55;;;34.10;77.30;;;;;;4975750;28;20039;-73
2023/08/20 12:44:10;;;;;;;10.00;6.03;;;34.30;80.50;;;;;;4976086;28;20105;-75
2023/08/20 12:46:35;;;;;;;11.65;6.75;;;34.40;81.10;;;;;;4975666;28;20062;-75
2023/08/20 12:49:01;;;;;;;11.70;6.47;;;34.40;79.30;;;;;;4975837;28;20049;-75